sensor_id;sensor_type;location;lat;lon;timestamp;temperature;humidity
80290;SHT30;69592;44.804;-0.550;2023-05-14T00:01:15;15.19;83.90
80290;SHT30;69592;44.804;-0.550;2023-05-14T00:03:40;15.09;83.90
80290;SHT30;69592;44.804;-0.550;2023-05-14T00:06:06;15.07;84.10
80290;SHT30;69592;44.804;-0.550;2023-05-14T00:08:32;15.07;84.25
80290;SHT30;69592;44.804;-0.550;2023-05-14T00:10:58;15.12;84.53
80290;SHT30;69592;44.804;-0.550;2023-05-14T00:13:25;15.22;84.18
80290;SHT30;69592;44.804;-0.550;2023-05-14T00:15:54;15.16;84.46
80290;SHT30;69592;44.804;-0.550;2023-05-14T00:18:20;15.19;84.65
80290;SHT30;69592;44.804;-0.550;2023-05-14T00:20:45;15.06;85.19
80290;SHT30;69592;44.804;-0.550;2023-05-14T00:23:14;15.16;84.71
80290;SHT30;69592;44.804;-0.550;2023-05-14T00:25:40;15.10;85.40
80290;SHT30;69592;44.804;-0.550;2023-05-14T00:28:06;15.04;85.49
80290;SHT30;69592;44.804;-0.550;2023-05-14T00:30:31;15.07;85.51
80290;SHT30;69592;44.804;-0.550;2023-05-14T00:32:56;15.09;85.60
80290;SHT30;69592;44.804;-0.550;2023-05-14T00:35:22;15.03;85.70
80290;SHT30;69592;44.804;-0.550;2023-05-14T00:37:49;14.96;85.77
80290;SHT30;69592;44.804;-0.550;2023-05-14T00:40:15;14.88;86.33
80290;SHT30;69592;44.804;-0.550;2023-05-14T00:42:40;14.83;86.27
80290;SHT30;69592;44.804;-0.550;2023-05-14T00:45:06;14.91;86.50
80290;SHT30;69592;44.804;-0.550;2023-05-14T00:47:32;14.83;86.71
80290;SHT30;69592;44.804;-0.550;2023-05-14T00:49:59;14.99;86.52
80290;SHT30;69592;44.804;-0.550;2023-05-14T00:52:25;14.99;86.37
80290;SHT30;69592;44.804;-0.550;2023-05-14T00:54:51;15.00;86.37
80290;SHT30;69592;44.804;-0.550;2023-05-14T00:57:17;14.95;86.30
80290;SHT30;69592;44.804;-0.550;2023-05-14T00:59:46;15.06;85.94
80290;SHT30;69592;44.804;-0.550;2023-05-14T01:02:11;15.12;85.84
80290;SHT30;69592;44.804;-0.550;2023-05-14T01:04:39;15.06;86.12
80290;SHT30;69592;44.804;-0.550;2023-05-14T01:07:32;15.10;86.09
80290;SHT30;69592;44.804;-0.550;2023-05-14T01:10:01;15.10;85.91
80290;SHT30;69592;44.804;-0.550;2023-05-14T01:13:07;15.04;86.05
80290;SHT30;69592;44.804;-0.550;2023-05-14T01:15:38;15.12;85.69
80290;SHT30;69592;44.804;-0.550;2023-05-14T01:18:09;15.22;85.07
80290;SHT30;69592;44.804;-0.550;2023-05-14T01:20:35;15.18;85.19
80290;SHT30;69592;44.804;-0.550;2023-05-14T01:23:01;15.09;85.56
80290;SHT30;69592;44.804;-0.550;2023-05-14T01:25:29;15.07;85.63
80290;SHT30;69592;44.804;-0.550;2023-05-14T01:28:02;15.10;85.36
80290;SHT30;69592;44.804;-0.550;2023-05-14T01:30:39;14.83;86.13
80290;SHT30;69592;44.804;-0.550;2023-05-14T01:33:13;14.89;86.29
80290;SHT30;69592;44.804;-0.550;2023-05-14T01:35:40;14.98;85.65
80290;SHT30;69592;44.804;-0.550;2023-05-14T01:38:10;14.88;86.20
80290;SHT30;69592;44.804;-0.550;2023-05-14T01:40:38;14.82;86.27
80290;SHT30;69592;44.804;-0.550;2023-05-14T01:43:04;14.72;86.36
80290;SHT30;69592;44.804;-0.550;2023-05-14T01:45:30;14.58;86.82
80290;SHT30;69592;44.804;-0.550;2023-05-14T01:47:56;14.75;86.53
80290;SHT30;69592;44.804;-0.550;2023-05-14T01:50:21;14.73;86.36
80290;SHT30;69592;44.804;-0.550;2023-05-14T01:52:47;14.89;85.74
80290;SHT30;69592;44.804;-0.550;2023-05-14T01:55:13;14.73;86.30
80290;SHT30;69592;44.804;-0.550;2023-05-14T01:57:39;14.73;86.01
80290;SHT30;69592;44.804;-0.550;2023-05-14T02:00:07;14.71;86.01
80290;SHT30;69592;44.804;-0.550;2023-05-14T02:02:33;14.72;85.77
80290;SHT30;69592;44.804;-0.550;2023-05-14T02:04:59;14.78;85.52
80290;SHT30;69592;44.804;-0.550;2023-05-14T02:07:24;14.55;85.97
80290;SHT30;69592;44.804;-0.550;2023-05-14T02:09:50;14.45;86.39
80290;SHT30;69592;44.804;-0.550;2023-05-14T02:12:15;14.58;86.33
80290;SHT30;69592;44.804;-0.550;2023-05-14T02:14:42;14.64;85.79
80290;SHT30;69592;44.804;-0.550;2023-05-14T02:17:08;14.54;86.06
80290;SHT30;69592;44.804;-0.550;2023-05-14T02:19:33;14.54;86.28
80290;SHT30;69592;44.804;-0.550;2023-05-14T02:22:00;14.58;85.95
80290;SHT30;69592;44.804;-0.550;2023-05-14T02:24:26;14.68;85.58
80290;SHT30;69592;44.804;-0.550;2023-05-14T02:26:51;14.62;85.80
80290;SHT30;69592;44.804;-0.550;2023-05-14T02:29:16;14.64;85.68
80290;SHT30;69592;44.804;-0.550;2023-05-14T02:31:44;14.68;85.35
80290;SHT30;69592;44.804;-0.550;2023-05-14T02:34:12;14.76;84.87
80290;SHT30;69592;44.804;-0.550;2023-05-14T02:36:38;14.71;85.05
80290;SHT30;69592;44.804;-0.550;2023-05-14T02:39:04;14.51;85.50
80290;SHT30;69592;44.804;-0.550;2023-05-14T02:41:29;14.54;85.45
80290;SHT30;69592;44.804;-0.550;2023-05-14T02:43:54;14.65;85.20
80290;SHT30;69592;44.804;-0.550;2023-05-14T02:46:20;14.68;85.11
80290;SHT30;69592;44.804;-0.550;2023-05-14T02:48:46;14.62;85.16
80290;SHT30;69592;44.804;-0.550;2023-05-14T02:51:13;14.62;85.30
80290;SHT30;69592;44.804;-0.550;2023-05-14T02:53:38;14.71;85.10
80290;SHT30;69592;44.804;-0.550;2023-05-14T02:56:04;14.64;85.42
80290;SHT30;69592;44.804;-0.550;2023-05-14T02:58:30;14.58;85.50
80290;SHT30;69592;44.804;-0.550;2023-05-14T03:00:55;14.64;85.41
80290;SHT30;69592;44.804;-0.550;2023-05-14T03:03:24;14.68;85.25
80290;SHT30;69592;44.804;-0.550;2023-05-14T03:05:50;14.72;85.22
80290;SHT30;69592;44.804;-0.550;2023-05-14T03:08:16;14.54;85.21
80290;SHT30;69592;44.804;-0.550;2023-05-14T03:10:43;14.55;85.07
80290;SHT30;69592;44.804;-0.550;2023-05-14T03:13:08;14.51;85.38
80290;SHT30;69592;44.804;-0.550;2023-05-14T03:15:34;14.51;85.50
80290;SHT30;69592;44.804;-0.550;2023-05-14T03:17:59;14.51;85.56
80290;SHT30;69592;44.804;-0.550;2023-05-14T03:20:25;14.54;85.55
80290;SHT30;69592;44.804;-0.550;2023-05-14T03:22:51;14.44;86.00
80290;SHT30;69592;44.804;-0.550;2023-05-14T03:25:17;14.44;86.21
80290;SHT30;69592;44.804;-0.550;2023-05-14T03:27:42;14.41;86.44
80290;SHT30;69592;44.804;-0.550;2023-05-14T03:30:08;14.42;86.14
80290;SHT30;69592;44.804;-0.550;2023-05-14T03:32:34;14.40;86.56
80290;SHT30;69592;44.804;-0.550;2023-05-14T03:35:00;14.37;86.59
80290;SHT30;69592;44.804;-0.550;2023-05-14T03:37:25;14.22;87.00
80290;SHT30;69592;44.804;-0.550;2023-05-14T03:39:50;14.20;87.30
80290;SHT30;69592;44.804;-0.550;2023-05-14T03:42:16;14.24;87.21
80290;SHT30;69592;44.804;-0.550;2023-05-14T03:44:41;14.24;86.92
80290;SHT30;69592;44.804;-0.550;2023-05-14T03:47:07;14.22;87.11
80290;SHT30;69592;44.804;-0.550;2023-05-14T03:49:33;14.30;86.54
80290;SHT30;69592;44.804;-0.550;2023-05-14T03:51:58;14.20;87.04
80290;SHT30;69592;44.804;-0.550;2023-05-14T03:54:24;14.16;87.24
80290;SHT30;69592;44.804;-0.550;2023-05-14T03:56:50;14.01;87.71
80290;SHT30;69592;44.804;-0.550;2023-05-14T03:59:16;13.98;87.33
80290;SHT30;69592;44.804;-0.550;2023-05-14T04:01:42;14.00;87.47
80290;SHT30;69592;44.804;-0.550;2023-05-14T04:04:07;13.97;87.35
80290;SHT30;69592;44.804;-0.550;2023-05-14T04:06:33;13.87;87.20
80290;SHT30;69592;44.804;-0.550;2023-05-14T04:08:58;13.77;87.41
80290;SHT30;69592;44.804;-0.550;2023-05-14T04:11:24;13.81;87.13
80290;SHT30;69592;44.804;-0.550;2023-05-14T04:13:49;13.73;87.51
80290;SHT30;69592;44.804;-0.550;2023-05-14T04:16:15;13.76;87.40
80290;SHT30;69592;44.804;-0.550;2023-05-14T04:18:40;13.73;87.31
80290;SHT30;69592;44.804;-0.550;2023-05-14T04:21:06;13.77;86.87
80290;SHT30;69592;44.804;-0.550;2023-05-14T04:23:31;13.79;86.59
80290;SHT30;69592;44.804;-0.550;2023-05-14T04:25:57;13.76;86.80
80290;SHT30;69592;44.804;-0.550;2023-05-14T04:28:22;13.71;86.66
80290;SHT30;69592;44.804;-0.550;2023-05-14T04:30:48;13.76;86.56
80290;SHT30;69592;44.804;-0.550;2023-05-14T04:33:14;13.69;86.65
80290;SHT30;69592;44.804;-0.550;2023-05-14T04:35:40;13.67;86.64
80290;SHT30;69592;44.804;-0.550;2023-05-14T04:38:05;13.70;86.46
80290;SHT30;69592;44.804;-0.550;2023-05-14T04:40:32;13.65;86.59
80290;SHT30;69592;44.804;-0.550;2023-05-14T04:42:58;13.71;86.41
80290;SHT30;69592;44.804;-0.550;2023-05-14T04:45:23;13.69;86.36
80290;SHT30;69592;44.804;-0.550;2023-05-14T04:47:49;13.71;86.28
80290;SHT30;69592;44.804;-0.550;2023-05-14T04:50:16;13.71;85.90
80290;SHT30;69592;44.804;-0.550;2023-05-14T04:52:42;13.65;86.25
80290;SHT30;69592;44.804;-0.550;2023-05-14T04:55:08;13.56;86.61
80290;SHT30;69592;44.804;-0.550;2023-05-14T04:57:34;13.63;86.57
80290;SHT30;69592;44.804;-0.550;2023-05-14T04:59:59;13.60;86.61
80290;SHT30;69592;44.804;-0.550;2023-05-14T05:02:25;13.70;86.16
80290;SHT30;69592;44.804;-0.550;2023-05-14T05:04:51;13.57;86.57
80290;SHT30;69592;44.804;-0.550;2023-05-14T05:07:16;13.59;86.28
80290;SHT30;69592;44.804;-0.550;2023-05-14T05:09:42;13.67;86.14
80290;SHT30;69592;44.804;-0.550;2023-05-14T05:12:08;13.59;86.25
80290;SHT30;69592;44.804;-0.550;2023-05-14T05:14:34;13.57;86.30
80290;SHT30;69592;44.804;-0.550;2023-05-14T05:16:59;13.56;86.31
80290;SHT30;69592;44.804;-0.550;2023-05-14T05:19:25;13.59;86.17
80290;SHT30;69592;44.804;-0.550;2023-05-14T05:21:50;13.67;85.91
80290;SHT30;69592;44.804;-0.550;2023-05-14T05:24:16;13.79;85.54
80290;SHT30;69592;44.804;-0.550;2023-05-14T05:26:44;13.83;85.12
80290;SHT30;69592;44.804;-0.550;2023-05-14T05:29:10;13.88;85.09
80290;SHT30;69592;44.804;-0.550;2023-05-14T05:31:36;14.04;84.50
80290;SHT30;69592;44.804;-0.550;2023-05-14T05:34:02;14.17;84.25
80290;SHT30;69592;44.804;-0.550;2023-05-14T05:36:28;14.20;84.18
80290;SHT30;69592;44.804;-0.550;2023-05-14T05:38:55;14.22;83.78
80290;SHT30;69592;44.804;-0.550;2023-05-14T05:41:20;14.38;83.57
80290;SHT30;69592;44.804;-0.550;2023-05-14T05:43:51;14.27;83.64
80290;SHT30;69592;44.804;-0.550;2023-05-14T05:46:21;14.08;84.47
80290;SHT30;69592;44.804;-0.550;2023-05-14T05:48:47;14.13;84.24
80290;SHT30;69592;44.804;-0.550;2023-05-14T05:51:17;14.24;83.97
80290;SHT30;69592;44.804;-0.550;2023-05-14T05:53:43;14.21;83.75
80290;SHT30;69592;44.804;-0.550;2023-05-14T05:56:10;14.35;83.67
80290;SHT30;69592;44.804;-0.550;2023-05-14T05:58:35;14.41;83.50
80290;SHT30;69592;44.804;-0.550;2023-05-14T06:01:01;14.41;82.56
80290;SHT30;69592;44.804;-0.550;2023-05-14T06:03:26;14.49;83.09
80290;SHT30;69592;44.804;-0.550;2023-05-14T06:05:52;14.49;82.67
80290;SHT30;69592;44.804;-0.550;2023-05-14T06:08:17;14.62;82.51
80290;SHT30;69592;44.804;-0.550;2023-05-14T06:10:43;14.35;83.02
80290;SHT30;69592;44.804;-0.550;2023-05-14T06:13:08;14.44;82.76
80290;SHT30;69592;44.804;-0.550;2023-05-14T06:15:34;14.48;82.85
80290;SHT30;69592;44.804;-0.550;2023-05-14T06:17:59;14.81;81.67
80290;SHT30;69592;44.804;-0.550;2023-05-14T06:20:24;14.95;81.21
80290;SHT30;69592;44.804;-0.550;2023-05-14T06:22:50;14.92;81.18
80290;SHT30;69592;44.804;-0.550;2023-05-14T06:25:15;15.13;80.26
80290;SHT30;69592;44.804;-0.550;2023-05-14T06:27:41;15.14;80.35
80290;SHT30;69592;44.804;-0.550;2023-05-14T06:30:08;15.13;80.64
80290;SHT30;69592;44.804;-0.550;2023-05-14T06:32:35;15.26;79.53
80290;SHT30;69592;44.804;-0.550;2023-05-14T06:35:00;15.26;79.47
80290;SHT30;69592;44.804;-0.550;2023-05-14T06:37:25;15.40;78.92
80290;SHT30;69592;44.804;-0.550;2023-05-14T06:39:51;15.56;78.56
80290;SHT30;69592;44.804;-0.550;2023-05-14T06:42:16;15.60;78.37
80290;SHT30;69592;44.804;-0.550;2023-05-14T06:44:43;15.56;78.06
80290;SHT30;69592;44.804;-0.550;2023-05-14T06:47:08;15.54;78.05
80290;SHT30;69592;44.804;-0.550;2023-05-14T06:49:34;15.85;78.07
80290;SHT30;69592;44.804;-0.550;2023-05-14T06:51:59;16.02;77.18
80290;SHT30;69592;44.804;-0.550;2023-05-14T06:54:25;16.21;76.85
80290;SHT30;69592;44.804;-0.550;2023-05-14T06:56:50;16.26;76.30
80290;SHT30;69592;44.804;-0.550;2023-05-14T06:59:15;16.14;75.94
80290;SHT30;69592;44.804;-0.550;2023-05-14T07:01:41;16.38;75.03
80290;SHT30;69592;44.804;-0.550;2023-05-14T07:04:07;16.52;74.62
80290;SHT30;69592;44.804;-0.550;2023-05-14T07:06:32;16.52;74.59
80290;SHT30;69592;44.804;-0.550;2023-05-14T07:08:59;16.58;74.33
80290;SHT30;69592;44.804;-0.550;2023-05-14T07:11:25;16.66;74.36
80290;SHT30;69592;44.804;-0.550;2023-05-14T07:13:50;16.81;74.03
80290;SHT30;69592;44.804;-0.550;2023-05-14T07:16:16;16.91;73.46
80290;SHT30;69592;44.804;-0.550;2023-05-14T07:18:41;17.02;73.50
80290;SHT30;69592;44.804;-0.550;2023-05-14T07:21:08;17.00;72.45
80290;SHT30;69592;44.804;-0.550;2023-05-14T07:23:33;16.83;73.04
80290;SHT30;69592;44.804;-0.550;2023-05-14T07:26:03;17.11;72.83
80290;SHT30;69592;44.804;-0.550;2023-05-14T07:28:29;17.16;72.88
80290;SHT30;69592;44.804;-0.550;2023-05-14T07:30:54;16.94;72.47
80290;SHT30;69592;44.804;-0.550;2023-05-14T07:33:20;17.02;73.32
80290;SHT30;69592;44.804;-0.550;2023-05-14T07:35:46;16.86;72.32
80290;SHT30;69592;44.804;-0.550;2023-05-14T07:38:25;17.21;71.43
80290;SHT30;69592;44.804;-0.550;2023-05-14T07:40:51;17.31;72.21
80290;SHT30;69592;44.804;-0.550;2023-05-14T07:43:16;17.62;71.74
80290;SHT30;69592;44.804;-0.550;2023-05-14T07:45:41;17.71;70.90
80290;SHT30;69592;44.804;-0.550;2023-05-14T07:48:07;17.89;70.51
80290;SHT30;69592;44.804;-0.550;2023-05-14T07:50:32;18.06;70.30
80290;SHT30;69592;44.804;-0.550;2023-05-14T07:52:58;18.10;69.83
80290;SHT30;69592;44.804;-0.550;2023-05-14T07:55:23;18.09;69.76
80290;SHT30;69592;44.804;-0.550;2023-05-14T07:57:50;17.74;70.56
80290;SHT30;69592;44.804;-0.550;2023-05-14T08:00:15;17.85;70.05
80290;SHT30;69592;44.804;-0.550;2023-05-14T08:02:41;17.72;70.21
80290;SHT30;69592;44.804;-0.550;2023-05-14T08:05:08;17.99;70.26
80290;SHT30;69592;44.804;-0.550;2023-05-14T08:07:42;18.03;69.22
80290;SHT30;69592;44.804;-0.550;2023-05-14T08:10:08;18.10;69.40
80290;SHT30;69592;44.804;-0.550;2023-05-14T08:12:33;18.08;68.04
80290;SHT30;69592;44.804;-0.550;2023-05-14T08:14:59;18.15;68.35
80290;SHT30;69592;44.804;-0.550;2023-05-14T08:17:24;18.26;67.66
80290;SHT30;69592;44.804;-0.550;2023-05-14T08:19:49;18.22;67.60
80290;SHT30;69592;44.804;-0.550;2023-05-14T08:22:15;18.30;68.75
80290;SHT30;69592;44.804;-0.550;2023-05-14T08:24:40;18.66;68.28
80290;SHT30;69592;44.804;-0.550;2023-05-14T08:27:07;18.53;68.19
80290;SHT30;69592;44.804;-0.550;2023-05-14T08:29:33;18.22;68.42
80290;SHT30;69592;44.804;-0.550;2023-05-14T08:31:59;18.52;67.14
80290;SHT30;69592;44.804;-0.550;2023-05-14T08:34:24;18.71;67.09
80290;SHT30;69592;44.804;-0.550;2023-05-14T08:36:50;18.88;67.38
80290;SHT30;69592;44.804;-0.550;2023-05-14T08:39:16;18.96;67.53
80290;SHT30;69592;44.804;-0.550;2023-05-14T08:41:42;18.96;67.26
80290;SHT30;69592;44.804;-0.550;2023-05-14T08:44:14;19.01;66.64
80290;SHT30;69592;44.804;-0.550;2023-05-14T08:46:52;19.14;65.09
80290;SHT30;69592;44.804;-0.550;2023-05-14T08:49:45;19.15;65.88
80290;SHT30;69592;44.804;-0.550;2023-05-14T08:52:11;19.17;65.69
80290;SHT30;69592;44.804;-0.550;2023-05-14T08:54:46;19.34;64.91
80290;SHT30;69592;44.804;-0.550;2023-05-14T08:57:13;19.59;65.54
80290;SHT30;69592;44.804;-0.550;2023-05-14T08:59:46;19.62;63.82
80290;SHT30;69592;44.804;-0.550;2023-05-14T09:02:13;19.62;64.87
80290;SHT30;69592;44.804;-0.550;2023-05-14T09:04:57;19.66;63.02
80290;SHT30;69592;44.804;-0.550;2023-05-14T09:07:28;19.96;63.31
80290;SHT30;69592;44.804;-0.550;2023-05-14T09:09:54;20.13;62.27
80290;SHT30;69592;44.804;-0.550;2023-05-14T09:12:22;20.13;62.90
80290;SHT30;69592;44.804;-0.550;2023-05-14T09:14:50;20.26;62.15
80290;SHT30;69592;44.804;-0.550;2023-05-14T09:17:17;20.03;63.26
80290;SHT30;69592;44.804;-0.550;2023-05-14T09:19:45;20.12;62.89
80290;SHT30;69592;44.804;-0.550;2023-05-14T09:22:17;20.39;62.53
80290;SHT30;69592;44.804;-0.550;2023-05-14T09:24:43;20.20;61.75
80290;SHT30;69592;44.804;-0.550;2023-05-14T09:27:18;20.40;61.07
80290;SHT30;69592;44.804;-0.550;2023-05-14T09:29:45;20.34;61.68
80290;SHT30;69592;44.804;-0.550;2023-05-14T09:32:11;20.13;61.87
80290;SHT30;69592;44.804;-0.550;2023-05-14T09:34:39;20.33;60.77
80290;SHT30;69592;44.804;-0.550;2023-05-14T09:37:27;20.39;60.62
80290;SHT30;69592;44.804;-0.550;2023-05-14T09:40:04;20.60;60.97
80290;SHT30;69592;44.804;-0.550;2023-05-14T09:42:32;20.67;60.29
80290;SHT30;69592;44.804;-0.550;2023-05-14T09:45:27;20.57;62.05
80290;SHT30;69592;44.804;-0.550;2023-05-14T09:47:59;20.84;60.66
80290;SHT30;69592;44.804;-0.550;2023-05-14T09:50:31;20.50;62.06
80290;SHT30;69592;44.804;-0.550;2023-05-14T09:53:02;20.47;62.73
80290;SHT30;69592;44.804;-0.550;2023-05-14T09:55:31;20.77;61.12
80290;SHT30;69592;44.804;-0.550;2023-05-14T09:57:58;21.02;60.69
80290;SHT30;69592;44.804;-0.550;2023-05-14T10:00:23;21.24;60.40
80290;SHT30;69592;44.804;-0.550;2023-05-14T10:02:51;21.09;59.02
80290;SHT30;69592;44.804;-0.550;2023-05-14T10:05:20;20.95;59.92
80290;SHT30;69592;44.804;-0.550;2023-05-14T10:07:53;20.75;56.88
80290;SHT30;69592;44.804;-0.550;2023-05-14T10:10:25;20.61;55.08
80290;SHT30;69592;44.804;-0.550;2023-05-14T10:13:01;20.68;58.09
80290;SHT30;69592;44.804;-0.550;2023-05-14T10:16:03;20.83;56.22
80290;SHT30;69592;44.804;-0.550;2023-05-14T10:18:45;21.11;56.02
80290;SHT30;69592;44.804;-0.550;2023-05-14T10:21:19;21.41;56.05
80290;SHT30;69592;44.804;-0.550;2023-05-14T10:23:50;21.47;56.40
80290;SHT30;69592;44.804;-0.550;2023-05-14T10:26:17;21.46;56.32
80290;SHT30;69592;44.804;-0.550;2023-05-14T10:28:42;21.59;55.85
80290;SHT30;69592;44.804;-0.550;2023-05-14T10:31:08;21.50;55.42
80290;SHT30;69592;44.804;-0.550;2023-05-14T10:33:48;21.72;55.11
80290;SHT30;69592;44.804;-0.550;2023-05-14T10:36:16;21.79;53.99
80290;SHT30;69592;44.804;-0.550;2023-05-14T10:38:43;21.79;53.17
80290;SHT30;69592;44.804;-0.550;2023-05-14T10:41:16;21.86;54.44
80290;SHT30;69592;44.804;-0.550;2023-05-14T10:44:07;21.80;52.99
80290;SHT30;69592;44.804;-0.550;2023-05-14T10:46:33;21.66;53.74
80290;SHT30;69592;44.804;-0.550;2023-05-14T10:48:59;21.73;54.17
80290;SHT30;69592;44.804;-0.550;2023-05-14T10:51:30;21.67;53.74
80290;SHT30;69592;44.804;-0.550;2023-05-14T10:53:59;21.60;54.19
80290;SHT30;69592;44.804;-0.550;2023-05-14T10:56:25;21.32;55.15
80290;SHT30;69592;44.804;-0.550;2023-05-14T10:58:51;21.35;56.40
80290;SHT30;69592;44.804;-0.550;2023-05-14T11:01:16;21.80;55.11
80290;SHT30;69592;44.804;-0.550;2023-05-14T11:03:44;22.04;54.56
80290;SHT30;69592;44.804;-0.550;2023-05-14T11:06:13;21.96;52.21
80290;SHT30;69592;44.804;-0.550;2023-05-14T11:08:39;22.06;52.72
80290;SHT30;69592;44.804;-0.550;2023-05-14T11:11:11;22.06;53.80
80290;SHT30;69592;44.804;-0.550;2023-05-14T11:13:37;21.90;53.23
80290;SHT30;69592;44.804;-0.550;2023-05-14T11:16:03;22.37;52.60
80290;SHT30;69592;44.804;-0.550;2023-05-14T11:18:33;22.24;51.70
80290;SHT30;69592;44.804;-0.550;2023-05-14T11:21:03;22.44;52.55
80290;SHT30;69592;44.804;-0.550;2023-05-14T11:23:29;22.71;52.25
80290;SHT30;69592;44.804;-0.550;2023-05-14T11:25:55;22.51;53.01
80290;SHT30;69592;44.804;-0.550;2023-05-14T11:28:21;22.55;52.35
80290;SHT30;69592;44.804;-0.550;2023-05-14T11:30:48;22.21;49.89
80290;SHT30;69592;44.804;-0.550;2023-05-14T11:33:33;22.20;50.25
80290;SHT30;69592;44.804;-0.550;2023-05-14T11:36:05;22.45;52.80
80290;SHT30;69592;44.804;-0.550;2023-05-14T11:38:30;21.99;52.11
80290;SHT30;69592;44.804;-0.550;2023-05-14T11:40:57;22.50;53.35
80290;SHT30;69592;44.804;-0.550;2023-05-14T11:43:53;22.48;52.55
80290;SHT30;69592;44.804;-0.550;2023-05-14T11:46:27;22.55;50.41
80290;SHT30;69592;44.804;-0.550;2023-05-14T11:48:56;22.69;50.57
80290;SHT30;69592;44.804;-0.550;2023-05-14T11:51:23;22.84;50.85
80290;SHT30;69592;44.804;-0.550;2023-05-14T11:53:51;22.82;51.04
80290;SHT30;69592;44.804;-0.550;2023-05-14T11:56:22;22.67;51.44
80290;SHT30;69592;44.804;-0.550;2023-05-14T11:58:48;22.18;51.16
80290;SHT30;69592;44.804;-0.550;2023-05-14T12:01:15;22.24;49.67
80290;SHT30;69592;44.804;-0.550;2023-05-14T12:04:02;22.38;52.05
80290;SHT30;69592;44.804;-0.550;2023-05-14T12:06:31;22.78;51.84
80290;SHT30;69592;44.804;-0.550;2023-05-14T12:09:20;23.06;50.02
80290;SHT30;69592;44.804;-0.550;2023-05-14T12:11:50;22.94;50.32
80290;SHT30;69592;44.804;-0.550;2023-05-14T12:14:23;22.85;49.98
80290;SHT30;69592;44.804;-0.550;2023-05-14T12:16:51;23.12;49.79
80290;SHT30;69592;44.804;-0.550;2023-05-14T12:19:24;22.54;51.27
80290;SHT30;69592;44.804;-0.550;2023-05-14T12:22:29;22.10;52.03
80290;SHT30;69592;44.804;-0.550;2023-05-14T12:25:11;22.31;51.44
80290;SHT30;69592;44.804;-0.550;2023-05-14T12:27:58;22.75;52.13
80290;SHT30;69592;44.804;-0.550;2023-05-14T12:30:24;22.89;51.45
80290;SHT30;69592;44.804;-0.550;2023-05-14T12:32:51;22.78;49.13
80290;SHT30;69592;44.804;-0.550;2023-05-14T12:35:22;22.50;50.13
80290;SHT30;69592;44.804;-0.550;2023-05-14T12:37:52;22.92;49.59
80290;SHT30;69592;44.804;-0.550;2023-05-14T12:40:25;23.33;50.43
80290;SHT30;69592;44.804;-0.550;2023-05-14T12:42:52;23.29;49.34
80290;SHT30;69592;44.804;-0.550;2023-05-14T12:45:37;22.61;50.68
80290;SHT30;69592;44.804;-0.550;2023-05-14T12:48:03;22.20;50.79
80290;SHT30;69592;44.804;-0.550;2023-05-14T12:50:46;22.01;49.81
80290;SHT30;69592;44.804;-0.550;2023-05-14T12:53:15;22.67;50.55
80290;SHT30;69592;44.804;-0.550;2023-05-14T12:55:51;23.29;49.44
80290;SHT30;69592;44.804;-0.550;2023-05-14T12:58:19;23.47;49.15
80290;SHT30;69592;44.804;-0.550;2023-05-14T13:00:50;23.43;47.59
80290;SHT30;69592;44.804;-0.550;2023-05-14T13:03:19;23.27;47.59
80290;SHT30;69592;44.804;-0.550;2023-05-14T13:05:50;23.49;47.12
80290;SHT30;69592;44.804;-0.550;2023-05-14T13:08:16;23.23;47.41
80290;SHT30;69592;44.804;-0.550;2023-05-14T13:10:43;23.13;46.96
80290;SHT30;69592;44.804;-0.550;2023-05-14T13:13:09;22.89;48.29
80290;SHT30;69592;44.804;-0.550;2023-05-14T13:15:35;22.98;48.04
80290;SHT30;69592;44.804;-0.550;2023-05-14T13:18:02;23.18;47.13
80290;SHT30;69592;44.804;-0.550;2023-05-14T13:20:27;23.18;48.02
80290;SHT30;69592;44.804;-0.550;2023-05-14T13:22:55;23.05;47.99
80290;SHT30;69592;44.804;-0.550;2023-05-14T13:25:20;22.81;48.43
80290;SHT30;69592;44.804;-0.550;2023-05-14T13:27:46;22.94;49.24
80290;SHT30;69592;44.804;-0.550;2023-05-14T13:30:16;22.62;49.23
80290;SHT30;69592;44.804;-0.550;2023-05-14T13:32:42;22.78;47.61
80290;SHT30;69592;44.804;-0.550;2023-05-14T13:35:07;22.94;47.30
80290;SHT30;69592;44.804;-0.550;2023-05-14T13:37:33;23.54;47.65
80290;SHT30;69592;44.804;-0.550;2023-05-14T13:39:58;23.96;45.93
80290;SHT30;69592;44.804;-0.550;2023-05-14T13:42:24;24.45;45.34
80290;SHT30;69592;44.804;-0.550;2023-05-14T13:44:49;24.52;44.88
80290;SHT30;69592;44.804;-0.550;2023-05-14T13:47:15;24.59;44.82
80290;SHT30;69592;44.804;-0.550;2023-05-14T13:49:40;24.28;45.35
80290;SHT30;69592;44.804;-0.550;2023-05-14T13:52:05;23.83;45.65
80290;SHT30;69592;44.804;-0.550;2023-05-14T13:54:31;23.74;46.49
80290;SHT30;69592;44.804;-0.550;2023-05-14T13:56:56;23.80;47.79
80290;SHT30;69592;44.804;-0.550;2023-05-14T13:59:22;24.07;48.17
80290;SHT30;69592;44.804;-0.550;2023-05-14T14:01:48;23.90;48.68
80290;SHT30;69592;44.804;-0.550;2023-05-14T14:04:14;23.22;49.58
80290;SHT30;69592;44.804;-0.550;2023-05-14T14:06:40;23.22;50.10
80290;SHT30;69592;44.804;-0.550;2023-05-14T14:09:06;23.45;50.49
80290;SHT30;69592;44.804;-0.550;2023-05-14T14:11:31;23.40;49.73
80290;SHT30;69592;44.804;-0.550;2023-05-14T14:13:56;24.05;49.00
80290;SHT30;69592;44.804;-0.550;2023-05-14T14:16:22;24.71;46.19
80290;SHT30;69592;44.804;-0.550;2023-05-14T14:18:47;24.83;43.51
80290;SHT30;69592;44.804;-0.550;2023-05-14T14:21:13;23.84;47.50
80290;SHT30;69592;44.804;-0.550;2023-05-14T14:23:42;24.04;45.53
80290;SHT30;69592;44.804;-0.550;2023-05-14T14:26:07;23.98;45.12
80290;SHT30;69592;44.804;-0.550;2023-05-14T14:28:33;24.32;44.72
80290;SHT30;69592;44.804;-0.550;2023-05-14T14:30:58;24.66;44.12
80290;SHT30;69592;44.804;-0.550;2023-05-14T14:33:24;24.82;44.53
80290;SHT30;69592;44.804;-0.550;2023-05-14T14:35:49;24.80;43.82
80290;SHT30;69592;44.804;-0.550;2023-05-14T14:38:15;24.65;45.02
80290;SHT30;69592;44.804;-0.550;2023-05-14T14:40:41;24.56;46.60
80290;SHT30;69592;44.804;-0.550;2023-05-14T14:43:09;24.80;45.11
80290;SHT30;69592;44.804;-0.550;2023-05-14T14:45:35;24.25;44.37
80290;SHT30;69592;44.804;-0.550;2023-05-14T14:48:26;24.39;45.86
80290;SHT30;69592;44.804;-0.550;2023-05-14T14:50:53;24.62;43.05
80290;SHT30;69592;44.804;-0.550;2023-05-14T14:53:20;24.29;43.68
80290;SHT30;69592;44.804;-0.550;2023-05-14T14:55:46;24.22;45.10
80290;SHT30;69592;44.804;-0.550;2023-05-14T14:58:12;24.13;45.44
80290;SHT30;69592;44.804;-0.550;2023-05-14T15:00:37;24.00;46.13
80290;SHT30;69592;44.804;-0.550;2023-05-14T15:03:04;24.54;45.33
80290;SHT30;69592;44.804;-0.550;2023-05-14T15:05:30;24.76;44.98
80290;SHT30;69592;44.804;-0.550;2023-05-14T15:07:55;24.08;45.77
80290;SHT30;69592;44.804;-0.550;2023-05-14T15:10:20;23.98;44.87
80290;SHT30;69592;44.804;-0.550;2023-05-14T15:12:46;24.72;44.59
80290;SHT30;69592;44.804;-0.550;2023-05-14T15:15:12;25.07;43.94
80290;SHT30;69592;44.804;-0.550;2023-05-14T15:17:37;24.96;43.15
80290;SHT30;69592;44.804;-0.550;2023-05-14T15:20:04;24.88;43.37